Time;durP1;ratioP1;P1;durP2;ratioP2;P2;SDS_P1;SDS_P2;PMS_P1;PMS_P2;Temp;Humidity;BMP_temperature;BMP_pressure;BME280_temperature;BME280_humidity;BME280_pressure;Samples;Min_cycle;Max_cycle;Signal;HPM_P1;HPM_P2
2023/08/29 00:02:04;;;;;;;11.67;6.53;;;;;;;-141.97;48.49;47342.25;5031048;28;20257;-82
2023/08/29 00:04:29;;;;;;;9.30;6.73;;;;;;;-141.97;48.56;47328.81;5030999;28;20182;-82
2023/08/29 00:06:55;;;;;;;9.27;6.17;;;;;;;-141.97;48.35;47349.94;5031833;28;20220;-83
2023/08/29 00:09:21;;;;;;;10.00;6.57;;;;;;;-141.97;48.52;47586.34;5043937;28;20192;-83
2023/08/29 00:11:46;;;;;;;9.83;6.10;;;;;;;-141.97;48.26;47430.66;5056042;28;20224;-83
2023/08/29 00:14:12;;;;;;;9.70;6.50;;;;;;;-141.97;48.31;47205.81;5054103;28;20611;-84
2023/08/29 00:16:37;;;;;;;9.63;6.10;;;;;;;-141.97;48.21;47342.25;5050981;28;20671;-82
2023/08/29 00:19:03;;;;;;;11.73;6.70;;;;;;;-141.97;48.33;47380.69;5051373;28;20462;-81
2023/08/29 00:21:28;;;;;;;9.87;6.23;;;;;;;-141.97;48.23;47315.34;5051012;28;20164;-81
2023/08/29 00:23:53;;;;;;;13.70;6.53;;;;;;;-141.97;48.03;47346.09;5051336;28;20192;-81
2023/08/29 00:26:19;;;;;;;18.50;7.13;;;;;;;-141.97;47.82;47369.16;5054314;28;20165;-81
2023/08/29 00:28:44;;;;;;;8.97;6.70;;;;;;;-141.97;47.86;47349.94;5054439;28;20180;-82
2023/08/29 00:31:10;;;;;;;10.30;6.90;;;;;;;-141.97;48.15;47365.31;5054600;28;20177;-81
2023/08/29 00:33:36;;;;;;;8.97;6.20;;;;;;;-141.97;48.41;47382.63;5054346;28;20165;-81
2023/08/29 00:36:01;;;;;;;7.87;6.30;;;;;;;-141.97;48.48;47403.75;5054748;28;20298;-81
2023/08/29 00:38:26;;;;;;;14.80;6.97;;;;;;;-141.97;48.58;47359.56;5054682;28;20591;-82
2023/08/29 00:40:52;;;;;;;12.20;6.77;;;;;;;-141.97;48.58;47371.09;5053960;28;20157;-81
2023/08/29 00:43:17;;;;;;;8.50;6.40;;;;;;;-141.97;48.40;47363.41;5053750;28;20213;-81
2023/08/29 00:45:43;;;;;;;10.40;6.70;;;;;;;-141.97;48.61;47365.31;5053783;28;20178;-82
2023/08/29 00:48:08;;;;;;;8.60;6.60;;;;;;;-141.97;49.05;47363.41;5029982;28;20270;-81
2023/08/29 00:50:35;;;;;;;11.87;6.67;;;;;;;-141.97;49.23;47363.41;5052249;28;20200;-81
2023/08/29 00:53:04;;;;;;;8.47;6.30;;;;;;;-141.97;49.68;47373.00;5053582;28;20492;-82
2023/08/29 00:55:30;;;;;;;10.40;6.60;;;;;;;-141.97;49.41;47392.22;5038110;28;20182;-82
2023/08/29 00:57:56;;;;;;;9.50;6.47;;;;;;;-141.97;49.77;47390.31;5038509;28;20253;-82
2023/08/29 01:00:26;;;;;;;11.17;6.43;;;;;;;-141.97;49.40;47348.03;5043955;28;20260;-83
2023/08/29 01:02:51;;;;;;;10.67;6.73;;;;;;;-141.97;49.05;47250.00;5042467;28;20541;-81
2023/08/29 01:05:17;;;;;;;9.70;6.70;;;;;;;-141.97;49.26;47376.84;5037110;28;20165;-81
2023/08/29 01:07:43;;;;;;;9.67;6.37;;;;;;;-141.97;49.33;47349.94;5035457;28;20162;-81
2023/08/29 01:10:09;;;;;;;9.53;6.83;;;;;;;-141.97;49.73;47367.25;5037350;28;20211;-83
2023/08/29 01:12:48;;;;;;;11.00;6.87;;;;;;;-141.97;49.41;47367.25;5039262;28;20657;-82
2023/08/29 01:15:21;;;;;;;11.57;6.80;;;;;;;-141.97;48.76;47373.00;5038846;28;20154;-82
2023/08/29 01:17:55;;;;;;;11.03;6.63;;;;;;;-141.97;49.21;47357.63;5038273;28;20166;-82
2023/08/29 01:20:22;;;;;;;9.67;6.90;;;;;;;-141.97;49.54;47355.72;5038829;28;20162;-81
2023/08/29 01:22:48;;;;;;;9.10;6.73;;;;;;;-141.97;49.69;47349.94;5035786;28;20690;-81
2023/08/29 01:25:26;;;;;;;9.50;6.53;;;;;;;-141.97;49.33;47361.47;5035798;28;20182;-81
2023/08/29 01:27:52;;;;;;;7.87;6.50;;;;;;;-141.97;49.50;47346.09;5037900;28;20177;-82
2023/08/29 01:30:18;;;;;;;9.80;6.80;;;;;;;-141.97;49.40;47373.00;5036650;28;20622;-83
2023/08/29 01:32:44;;;;;;;9.63;6.80;;;;;;;-141.97;49.38;47326.88;5039995;28;20178;-83
2023/08/29 01:35:13;;;;;;;9.93;7.00;;;;;;;-141.97;49.33;47380.69;5039510;28;20178;-81
2023/08/29 01:37:38;;;;;;;11.67;6.93;;;;;;;-141.97;49.31;47376.84;5047594;28;20647;-82
2023/08/29 01:40:04;;;;;;;9.10;6.80;;;;;;;-141.97;49.35;47407.59;5044902;28;20634;-82
2023/08/29 01:42:30;;;;;;;10.57;6.77;;;;;;;-141.97;49.23;47599.81;5047221;28;20232;-81
2023/08/29 01:44:55;;;;;;;9.87;6.53;;;;;;;-141.97;49.41;47396.06;5036642;28;20666;-82
2023/08/29 01:47:20;;;;;;;11.17;6.93;;;;;;;-141.97;49.39;47373.00;5034288;28;20224;-82
2023/08/29 01:49:46;;;;;;;10.13;6.47;;;;;;;-141.97;49.26;47361.47;5030948;28;20754;-82
2023/08/29 01:52:12;;;;;;;8.97;6.73;;;;;;;-141.97;49.19;47226.94;5053470;28;20238;-82
2023/08/29 01:54:37;;;;;;;9.83;6.60;;;;;;;-141.97;49.19;47403.75;5044789;28;20181;-82
2023/08/29 01:57:05;;;;;;;10.00;6.40;;;;;;;-141.97;49.12;47353.78;5034210;28;20193;-81
2023/08/29 01:59:31;;;;;;;11.67;6.60;;;;;;;-141.97;48.88;47371.09;5034366;28;20174;-82
2023/08/29 02:01:57;;;;;;;10.57;6.20;;;;;;;-141.97;49.07;47184.66;5050377;28;20173;-80
2023/08/29 02:04:22;;;;;;;10.53;6.63;;;;;;;-141.97;49.11;47330.72;5045893;28;20210;-81
2023/08/29 02:06:49;;;;;;;9.67;6.50;;;;;;;-141.97;49.00;47338.41;5033071;28;20201;-81
2023/08/29 02:09:14;;;;;;;8.73;6.57;;;;;;;-141.97;49.01;47386.47;5032942;28;20686;-82
2023/08/29 02:11:39;;;;;;;11.23;6.63;;;;;;;-141.97;48.90;47411.44;5032735;28;20250;-83
2023/08/29 02:14:05;;;;;;;10.80;6.70;;;;;;;-141.97;48.81;47590.19;5033547;28;20182;-83
2023/08/29 02:16:31;;;;;;;10.30;6.77;;;;;;;-141.97;48.82;47311.50;5033555;28;20162;-82
2023/08/29 02:18:56;;;;;;;9.80;6.90;;;;;;;-141.97;49.44;47409.53;5032877;28;20552;-83
2023/08/29 02:21:22;;;;;;;9.57;6.50;;;;;;;-141.97;49.11;47355.72;5029126;28;20178;-82
2023/08/29 02:23:47;;;;;;;9.77;6.80;;;;;;;-141.97;49.36;47396.06;5032358;28;20186;-82
2023/08/29 02:26:13;;;;;;;13.37;7.20;;;;;;;-141.97;49.42;47307.66;5032410;28;20170;-82
2023/08/29 02:28:38;;;;;;;12.27;7.63;;;;;;;-141.97;49.64;47067.44;5032812;28;20170;-83
2023/08/29 02:31:05;;;;;;;10.97;7.83;;;;;;;-141.97;49.99;47384.53;5032575;28;20189;-82
2023/08/29 02:33:33;;;;;;;12.57;8.37;;;;;;;-141.97;50.07;47371.09;5032364;28;20170;-82
2023/08/29 02:35:58;;;;;;;19.03;11.03;;;;;;;-141.97;49.94;47403.75;5032857;28;20643;-82
2023/08/29 02:38:24;;;;;;;13.07;7.77;;;;;;;-141.97;50.01;47630.56;5032435;28;20186;-81
2023/08/29 02:40:49;;;;;;;12.17;8.07;;;;;;;-141.97;50.08;47547.91;5032178;28;20212;-82
2023/08/29 02:43:14;;;;;;;13.93;7.60;;;;;;;-141.97;50.12;47413.38;5031410;28;20283;-80
2023/08/29 02:45:40;;;;;;;14.83;9.07;;;;;;;-141.97;50.20;47399.91;5031470;28;20178;-80
2023/08/29 02:48:05;;;;;;;11.57;7.97;;;;;;;-141.97;50.24;47415.28;5031565;28;20191;-80
2023/08/29 02:50:32;;;;;;;10.67;7.07;;;;;;;-141.97;50.19;47330.72;5031954;28;20240;-80
2023/08/29 02:52:58;;;;;;;16.10;7.00;;;;;;;-141.97;50.40;47388.38;5031050;28;20649;-81
2023/08/29 02:55:23;;;;;;;11.30;7.60;;;;;;;-141.97;50.70;47415.28;5050113;28;20181;-80
2023/08/29 02:57:48;;;;;;;12.90;7.77;;;;;;;-141.97;50.89;47390.31;5050152;28;20166;-81
2023/08/29 03:00:14;;;;;;;10.43;7.33;;;;;;;-141.97;50.93;47401.84;5031842;28;20166;-80
2023/08/29 03:02:40;;;;;;;10.57;7.70;;;;;;;-141.97;51.08;47449.88;5031013;28;20182;-80
2023/08/29 03:05:05;;;;;;;12.27;7.93;;;;;;;-141.97;51.33;47398.00;5031474;28;20166;-80
2023/08/29 03:07:31;;;;;;;13.97;7.93;;;;;;;-141.97;51.50;47363.41;5031320;28;20166;-81
2023/08/29 03:09:56;;;;;;;11.13;7.13;;;;;;;-141.97;51.74;47403.75;5031185;28;20189;-80
2023/08/29 03:12:22;;;;;;;15.67;8.00;;;;;;;-141.97;52.15;47411.44;5031184;28;20192;-80
2023/08/29 03:14:53;;;;;;;10.37;8.07;;;;;;;-141.97;52.50;47396.06;5031120;28;20236;-80
2023/08/29 03:17:18;;;;;;;12.27;8.93;;;;;;;-141.97;52.52;47311.50;5032528;28;20180;-83
2023/08/29 03:19:44;;;;;;;11.57;7.67;;;;;;;-141.97;52.55;47403.75;5037085;28;20594;-81
2023/08/29 03:22:09;;;;;;;12.33;8.23;;;;;;;-141.97;52.32;47580.59;5033702;28;20205;-83
2023/08/29 03:24:34;;;;;;;12.43;7.43;;;;;;;-141.97;52.43;47346.09;5031968;28;20224;-81
2023/08/29 03:27:00;;;;;;;13.87;8.10;;;;;;;-141.97;52.22;47359.56;5031472;28;20170;-82
2023/08/29 03:29:25;;;;;;;10.67;8.00;;;;;;;-141.97;52.17;47365.31;5032400;28;20228;-82
2023/08/29 03:31:51;;;;;;;13.53;8.00;;;;;;;-141.97;52.25;47365.31;5033216;28;20170;-80
2023/08/29 03:34:16;;;;;;;10.90;7.70;;;;;;;-141.97;52.15;47572.91;5030959;28;20558;-81
2023/08/29 03:36:41;;;;;;;13.63;9.07;;;;;;;-141.97;52.33;47386.47;5032093;28;20257;-81
2023/08/29 03:39:07;;;;;;;10.03;7.90;;;;;;;-141.97;52.12;47401.84;5033483;28;20181;-83
2023/08/29 03:41:32;;;;;;;12.33;7.83;;;;;;;-141.97;52.10;47323.03;5033642;28;20614;-81
2023/08/29 03:43:57;;;;;;;12.37;7.70;;;;;;;-141.97;52.05;47430.66;5045594;28;20197;-80
2023/08/29 03:46:23;;;;;;;10.60;8.07;;;;;;;-141.97;52.10;47392.22;5047714;28;20196;-81
2023/08/29 03:48:48;;;;;;;8.93;7.50;;;;;;;-141.97;51.86;47419.13;5044924;28;20173;-82
2023/08/29 03:51:14;;;;;;;14.20;8.57;;;;;;;-141.97;52.17;47340.34;5044606;28;20181;-81
2023/08/29 03:53:39;;;;;;;14.87;8.97;;;;;;;-141.97;52.25;47415.28;5034101;28;20172;-81
2023/08/29 03:56:07;;;;;;;23.43;10.03;;;;;;;-141.97;52.54;47326.88;5032550;28;20158;-82
2023/08/29 03:58:33;;;;;;;17.97;9.10;;;;;;;-141.97;52.31;47388.38;5029676;28;20284;-81
2023/08/29 04:00:59;;;;;;;15.27;8.90;;;;;;;-141.97;52.65;47403.75;5033323;28;20173;-82
2023/08/29 04:03:24;;;;;;;15.10;8.83;;;;;;;-141.97;52.72;47401.84;5033241;28;20165;-82
2023/08/29 04:05:49;;;;;;;16.27;8.63;;;;;;;-141.97;52.87;47380.69;5035548;28;20201;-83
2023/08/29 04:08:15;;;;;;;15.53;8.63;;;;;;;-141.97;53.19;47428.75;5034719;28;20166;-82
2023/08/29 04:10:41;;;;;;;14.70;8.70;;;;;;;-141.97;53.26;47384.53;5034176;28;20200;-82
2023/08/29 04:13:08;;;;;;;12.33;8.67;;;;;;;-141.97;53.24;47396.06;5035105;28;20212;-82
2023/08/29 04:15:37;;;;;;;17.30;8.90;;;;;;;-141.97;52.89;47411.44;5035031;28;20188;-82
2023/08/29 04:18:03;;;;;;;13.03;8.43;;;;;;;-141.97;53.22;47419.13;5023373;28;20275;-81
2023/08/29 04:20:29;;;;;;;16.17;8.80;;;;;;;-141.97;53.67;47422.97;5029136;28;20170;-81
2023/08/29 04:22:56;;;;;;;16.50;9.00;;;;;;;-141.97;53.70;47398.00;5035157;28;20253;-81
2023/08/29 04:25:22;;;;;;;19.03;9.70;;;;;;;-141.97;53.31;47409.53;5034892;28;20200;-82
2023/08/29 04:27:48;;;;;;;24.47;12.33;;;;;;;-141.97;53.88;47446.03;5034495;28;20167;-81
2023/08/29 04:30:14;;;;;;;22.33;12.23;;;;;;;-141.97;55.85;47399.91;5034835;28;20665;-84
2023/08/29 04:32:40;;;;;;;18.37;11.27;;;;;;;-141.97;56.86;47384.53;5035088;28;20185;-82
2023/08/29 04:35:06;;;;;;;21.03;11.50;;;;;;;-141.97;57.28;47438.34;5033289;28;20154;-82
2023/08/29 04:37:35;;;;;;;24.47;11.23;;;;;;;-141.97;57.21;47394.16;5034693;28;20158;-82
2023/08/29 04:40:01;;;;;;;20.60;10.33;;;;;;;-141.97;56.62;47438.34;5034211;28;20231;-81
2023/08/29 04:42:27;;;;;;;16.27;10.77;;;;;;;-141.97;56.11;47438.34;5033592;28;20233;-82
2023/08/29 04:44:53;;;;;;;29.50;11.70;;;;;;;-141.97;55.72;47334.56;5033793;28;20171;-82
2023/08/29 04:47:20;;;;;;;39.67;11.40;;;;;;;-141.97;56.89;47359.56;5032489;28;20257;-82
2023/08/29 04:49:45;;;;;;;23.77;10.43;;;;;;;-141.97;56.50;47371.09;5033826;28;20205;-82
2023/08/29 04:52:10;;;;;;;19.17;10.60;;;;;;;-141.97;55.67;47415.28;5034263;28;20178;-82
2023/08/29 04:54:36;;;;;;;17.97;10.40;;;;;;;-141.97;55.30;47392.22;5034320;28;20162;-82
2023/08/29 04:57:04;;;;;;;15.70;9.73;;;;;;;-141.97;54.85;47411.44;5033912;28;20744;-84
2023/08/29 04:59:29;;;;;;;22.03;10.70;;;;;;;-141.97;55.00;47361.47;5034031;28;20180;-83
2023/08/29 05:01:54;;;;;;;20.87;11.07;;;;;;;-141.97;54.78;47426.81;5034063;28;20248;-83
2023/08/29 05:04:20;;;;;;;19.80;10.37;;;;;;;-141.97;54.11;47365.31;5033764;28;20175;-82
2023/08/29 05:06:45;;;;;;;18.37;10.37;;;;;;;-141.97;53.73;47424.91;5048139;28;20633;-83
2023/08/29 05:09:11;;;;;;;20.00;10.83;;;;;;;-141.97;53.26;47532.53;5033687;28;20173;-82
2023/08/29 05:11:36;;;;;;;16.13;10.30;;;;;;;-141.97;52.78;47299.97;5033046;28;20182;-82
2023/08/29 05:14:02;;;;;;;22.00;10.60;;;;;;;-141.97;52.60;47315.34;5036181;28;20223;-81
2023/08/29 05:16:28;;;;;;;15.87;9.97;;;;;;;-141.97;53.56;47553.69;5033631;28;20320;-83
2023/08/29 05:18:53;;;;;;;16.47;10.60;;;;;;;-141.97;53.49;47398.00;5034056;28;20216;-82
2023/08/29 05:21:18;;;;;;;24.07;10.70;;;;;;;-141.97;52.78;47407.59;5033250;28;20188;-82
2023/08/29 05:23:44;;;;;;;16.77;10.50;;;;;;;-141.97;52.14;47315.34;5034355;28;20209;-82
2023/08/29 05:26:09;;;;;;;26.27;10.70;;;;;;;-141.97;52.06;47549.84;5033440;28;20204;-82
2023/08/29 05:28:35;;;;;;;22.97;12.03;;;;;;;-141.97;51.91;47384.53;5033428;28;20170;-82
2023/08/29 05:31:00;;;;;;;20.23;10.77;;;;;;;-141.97;51.74;47134.69;5034006;28;20240;-81
2023/08/29 05:33:26;;;;;;;16.23;10.20;;;;;;;-141.97;51.68;47369.16;5034646;28;20205;-83
2023/08/29 05:35:51;;;;;;;20.67;10.70;;;;;;;-141.97;51.68;47497.94;5033340;28;21034;-83
2023/08/29 05:38:16;;;;;;;19.30;10.50;;;;;;;-141.97;51.25;47417.22;5033390;28;20226;-82
2023/08/29 05:40:42;;;;;;;15.03;10.23;;;;;;;-141.97;50.09;47380.69;5033324;28;20698;-83
2023/08/29 05:43:07;;;;;;;16.37;10.23;;;;;;;-141.97;49.54;47390.31;5033114;28;20253;-82
2023/08/29 05:45:32;;;;;;;19.83;10.47;;;;;;;-141.97;49.33;47363.41;5033651;28;20181;-82
2023/08/29 05:47:58;;;;;;;21.40;10.97;;;;;;;-141.97;49.52;47378.78;5033201;28;20659;-83
2023/08/29 05:50:24;;;;;;;19.73;10.90;;;;;;;-141.97;49.34;47353.78;5034923;28;20198;-82
2023/08/29 05:52:49;;;;;;;25.50;11.40;;;;;;;-141.97;49.07;47499.84;5052899;28;20170;-83
2023/08/29 05:55:15;;;;;;;25.60;12.00;;;;;;;-141.97;49.30;47374.94;5051567;28;21026;-83
2023/08/29 05:57:41;;;;;;;22.97;11.13;;;;;;;-141.97;49.68;47392.22;5050982;28;20210;-81
2023/08/29 06:00:07;;;;;;;21.83;11.83;;;;;;;-141.97;49.44;47373.00;5043058;28;20217;-82
2023/08/29 06:02:33;;;;;;;19.70;10.83;;;;;;;-141.97;48.93;47605.56;5037566;28;20166;-83
2023/08/29 06:04:58;;;;;;;25.57;11.00;;;;;;;-141.97;48.55;47203.88;5034294;28;20173;-83
2023/08/29 06:07:24;;;;;;;26.43;11.40;;;;;;;-141.97;47.95;47230.78;5033365;28;20166;-82
2023/08/29 06:09:50;;;;;;;19.33;10.83;;;;;;;-141.97;47.70;47234.63;5032521;28;20213;-83
2023/08/29 06:12:16;;;;;;;20.43;11.13;;;;;;;-141.97;48.57;47653.63;5031889;28;20562;-82
2023/08/29 06:14:41;;;;;;;17.40;10.93;;;;;;;-141.97;47.96;47384.53;5033253;28;20224;-82
2023/08/29 06:17:07;;;;;;;20.10;11.60;;;;;;;-141.97;47.78;47369.16;5031863;28;20181;-83
2023/08/29 06:19:32;;;;;;;16.47;11.50;;;;;;;-141.97;47.82;47390.31;5032620;28;20184;-83
2023/08/29 06:21:57;;;;;;;20.93;11.07;;;;;;;-141.97;47.52;47392.22;5031744;28;20170;-83
2023/08/29 06:24:23;;;;;;;17.73;10.93;;;;;;;-141.97;47.42;47346.09;5036357;28;20166;-83
2023/08/29 06:26:49;;;;;;;20.23;11.57;;;;;;;-141.97;46.60;47365.31;5046177;28;20162;-82
2023/08/29 06:29:14;;;;;;;23.13;12.03;;;;;;;-141.97;46.24;47353.78;5044671;28;20166;-82
2023/08/29 06:31:41;;;;;;;20.70;11.50;;;;;;;-141.97;46.11;47597.88;5036683;28;20201;-82
2023/08/29 06:34:06;;;;;;;18.20;11.80;;;;;;;-141.97;46.10;47357.63;5033520;28;20193;-82
2023/08/29 06:36:32;;;;;;;20.20;11.50;;;;;;;-141.97;44.88;47128.94;5033870;28;20163;-83
2023/08/29 06:38:57;;;;;;;17.48;11.85;;;;;;;-141.97;44.62;47305.75;5033738;28;20494;-82
2023/08/29 06:41:23;;;;;;;19.23;11.48;;;;;;;-141.97;44.22;47365.31;5033223;28;20258;-83
2023/08/29 06:43:48;;;;;;;18.52;12.25;;;;;;;-141.97;44.22;47209.66;5033128;28;20257;-84
2023/08/29 06:46:14;;;;;;;20.13;11.48;;;;;;;-141.97;44.18;47538.28;5032571;28;20282;-81
2023/08/29 06:48:40;;;;;;;17.80;11.55;;;;;;;-141.97;43.90;47165.44;5039696;28;20161;-81
2023/08/29 06:51:07;;;;;;;22.13;12.32;;;;;;;-141.97;43.94;47269.22;5038059;28;20199;-85
2023/08/29 06:53:32;;;;;;;18.42;12.00;;;;;;;-141.97;43.28;47428.75;5034242;28;20263;-83
2023/08/29 06:55:58;;;;;;;16.25;11.45;;;;;;;-141.97;43.40;47340.34;5033239;28;20200;-82
2023/08/29 06:58:23;;;;;;;24.95;12.07;;;;;;;-141.97;43.47;47378.78;5032625;28;20207;-82
2023/08/29 07:00:48;;;;;;;28.15;12.50;;;;;;;-141.97;44.06;47369.16;5031945;28;20257;-82
2023/08/29 07:03:14;;;;;;;18.15;12.07;;;;;;;-141.97;43.23;47336.50;5032063;28;20184;-84
2023/08/29 07:05:39;;;;;;;18.88;11.70;;;;;;;-141.97;43.00;47361.47;5033818;28;20165;-83
2023/08/29 07:08:06;;;;;;;19.25;11.55;;;;;;;-141.97;42.99;47374.94;5032823;28;20165;-82
2023/08/29 07:10:32;;;;;;;24.48;11.88;;;;;;;-141.97;42.08;47374.94;5032538;28;20317;-83
2023/08/29 07:12:57;;;;;;;20.38;11.85;;;;;;;-141.97;41.93;47530.59;5031774;28;20656;-83
2023/08/29 07:15:23;;;;;;;19.58;11.63;;;;;;;-141.97;41.39;47276.91;5031706;28;20296;-83
2023/08/29 07:17:48;;;;;;;23.27;11.90;;;;;;;-141.97;40.63;47324.97;5031899;28;20156;-83
2023/08/29 07:20:15;;;;;;;20.35;11.05;;;;;;;-141.97;40.57;47319.19;5032695;28;20157;-82
2023/08/29 07:22:43;;;;;;;19.02;11.73;;;;;;;-141.97;40.42;47299.97;5032376;28;20186;-83
2023/08/29 07:25:11;;;;;;;19.60;11.77;;;;;;;-141.97;40.27;47307.66;5031706;28;20184;-83
2023/08/29 07:27:37;;;;;;;21.77;11.60;;;;;;;-141.97;40.90;47280.75;5031632;28;20242;-83
2023/08/29 07:30:03;;;;;;;19.55;11.73;;;;;;;-141.97;40.76;47284.59;5031407;28;20194;-83
2023/08/29 07:32:30;;;;;;;19.10;11.85;;;;;;;-141.97;40.26;47359.56;5031309;28;20204;-83
2023/08/29 07:34:56;;;;;;;18.45;12.13;;;;;;;-141.97;38.96;47196.19;5031308;28;20172;-83
2023/08/29 07:37:23;;;;;;;19.95;11.77;;;;;;;-141.97;38.64;47388.38;5032054;28;20633;-83
2023/08/29 07:39:49;;;;;;;16.92;12.10;;;;;;;-141.97;38.41;47565.22;5032473;28;20165;-84
2023/08/29 07:42:16;;;;;;;22.42;11.95;;;;;;;-141.97;37.91;47546.00;5029846;28;20233;-85
2023/08/29 07:44:42;;;;;;;25.52;12.35;;;;;;;-141.97;38.11;47294.22;5031627;28;20622;-84
2023/08/29 07:47:08;;;;;;;22.65;12.52;;;;;;;-141.97;37.64;47286.53;5031386;28;20168;-84
2023/08/29 07:49:34;;;;;;;15.85;12.02;;;;;;;-141.97;37.37;47317.28;5031484;28;20170;-83
2023/08/29 07:52:00;;;;;;;19.77;12.73;;;;;;;-141.97;37.22;47349.94;5031100;28;20252;-82
2023/08/29 07:54:26;;;;;;;16.48;12.57;;;;;;;-141.97;36.68;47248.09;5031061;28;20179;-84
2023/08/29 07:56:51;;;;;;;19.25;13.70;;;;;;;-141.97;36.63;47288.44;5032783;28;20541;-83
2023/08/29 07:59:16;;;;;;;17.77;13.65;;;;;;;-141.97;37.25;47313.44;5045885;28;20165;-82
2023/08/29 08:01:42;;;;;;;17.98;13.73;;;;;;;-141.97;36.66;47230.78;5048098;28;20205;-82
2023/08/29 08:04:08;;;;;;;18.77;14.43;;;;;;;-141.97;36.18;47303.81;5041188;28;20172;-82
2023/08/29 08:06:34;;;;;;;20.08;16.23;;;;;;;-141.97;35.92;47296.13;5044105;28;20169;-82
2023/08/29 08:09:00;;;;;;;24.40;16.73;;;;;;;-141.97;36.00;47257.69;5031389;28;20541;-84
2023/08/29 08:11:26;;;;;;;37.08;17.35;;;;;;;-141.97;35.81;47269.22;5032164;28;20212;-83
2023/08/29 08:13:51;;;;;;;21.42;16.20;;;;;;;-141.97;35.68;47221.19;5031812;28;20181;-83
2023/08/29 08:16:17;;;;;;;23.15;16.23;;;;;;;-141.97;35.43;47263.47;5032287;28;20611;-83
2023/08/29 08:18:42;;;;;;;26.98;16.00;;;;;;;-141.97;35.84;47298.06;5031561;28;20166;-83
2023/08/29 08:21:07;;;;;;;20.33;17.27;;;;;;;-141.97;36.01;47190.44;5029694;28;20260;-84
2023/08/29 08:23:33;;;;;;;21.77;16.85;;;;;;;-141.97;35.53;47434.50;5031623;28;20204;-83
2023/08/29 08:25:58;;;;;;;27.00;18.00;;;;;;;-141.97;35.53;47251.94;5031461;28;20170;-83
2023/08/29 08:28:24;;;;;;;22.60;16.85;;;;;;;-141.97;35.16;47098.19;5030965;28;20188;-84
2023/08/29 08:30:50;;;;;;;21.25;17.38;;;;;;;-141.97;34.82;47269.22;5031083;28;20183;-82
2023/08/29 08:33:15;;;;;;;24.42;18.60;;;;;;;-141.97;34.79;47192.34;5030889;28;20698;-83
2023/08/29 08:35:41;;;;;;;25.35;21.38;;;;;;;-141.97;35.40;47273.06;5029331;28;20188;-84
2023/08/29 08:38:07;;;;;;;32.03;23.90;;;;;;;-141.97;35.49;47188.50;5031057;28;20160;-83
2023/08/29 08:40:34;;;;;;;26.55;22.45;;;;;;;-141.97;35.18;47344.19;5030751;28;20166;-81
2023/08/29 08:43:04;;;;;;;32.90;24.23;;;;;;;-141.97;34.59;47555.59;5029586;28;20223;-83
2023/08/29 08:45:30;;;;;;;36.35;24.15;;;;;;;-141.97;34.90;47255.78;5031149;28;20288;-84
2023/08/29 08:47:57;;;;;;;35.90;26.33;;;;;;;-141.97;35.33;47223.09;5049519;28;20602;-82
2023/08/29 08:50:24;;;;;;;34.35;26.63;;;;;;;-141.97;34.76;47165.44;5028029;28;20212;-83
2023/08/29 08:52:51;;;;;;;32.63;26.85;;;;;;;-141.97;33.87;47244.25;5017777;28;20172;-84
2023/08/29 08:55:17;;;;;;;33.83;26.98;;;;;;;-141.97;33.64;47480.63;5032213;28;20250;-83
2023/08/29 08:57:43;;;;;;;31.45;27.25;;;;;;;-141.97;33.54;47238.47;5033914;28;20196;-83
2023/08/29 09:00:09;;;;;;;35.50;26.63;;;;;;;-141.97;33.61;47250.00;5033650;28;20571;-83
2023/08/29 09:02:37;;;;;;;39.85;26.10;;;;;;;-141.97;34.71;47248.09;5033606;28;20169;-84
2023/08/29 09:05:03;;;;;;;34.70;25.52;;;;;;;-141.97;34.11;47463.34;5034095;28;20173;-83
2023/08/29 09:07:28;;;;;;;33.30;25.25;;;;;;;-141.97;34.34;47292.28;5041717;28;20172;-83
2023/08/29 09:10:11;;;;;;;32.20;27.08;;;;;;;-141.97;34.87;47125.09;5039361;28;20216;-83
2023/08/29 09:12:48;;;;;;;33.47;26.38;;;;;;;-141.97;33.58;47232.72;5037322;28;20728;-83
2023/08/29 09:15:16;;;;;;;32.63;25.85;;;;;;;-141.97;33.27;47240.41;5034458;28;20193;-83
2023/08/29 09:17:59;;;;;;;30.63;24.42;;;;;;;-141.97;33.46;47223.09;5033210;28;20174;-83
2023/08/29 09:20:29;;;;;;;26.17;22.48;;;;;;;-141.97;33.35;47226.94;5033250;28;20603;-81
2023/08/29 09:22:55;;;;;;;26.35;21.33;;;;;;;-141.97;32.58;47253.84;5033193;28;20231;-84
2023/08/29 09:25:23;;;;;;;26.17;20.33;;;;;;;-141.97;32.42;47184.66;5044997;28;20174;-82
2023/08/29 09:27:49;;;;;;;24.70;19.98;;;;;;;-141.97;32.43;47213.50;5053016;28;20157;-83
2023/08/29 09:30:17;;;;;;;22.92;19.42;;;;;;;-141.97;32.51;47225.03;5053666;28;20573;-84
2023/08/29 09:32:44;;;;;;;28.35;18.15;;;;;;;-141.97;32.04;47211.56;5067326;28;20169;-84
2023/08/29 09:35:14;;;;;;;22.17;18.45;;;;;;;-141.97;31.83;47142.38;5050464;28;20186;-83
2023/08/29 09:37:50;;;;;;;21.77;16.42;;;;;;;-141.97;31.53;47221.19;5042711;28;20169;-83
2023/08/29 09:40:19;;;;;;;26.33;16.65;;;;;;;-141.97;32.22;47226.94;5033378;28;20156;-83
2023/08/29 09:43:01;;;;;;;18.17;14.20;;;;;;;-141.97;32.39;47200.03;5032753;28;20209;-83
2023/08/29 09:45:33;;;;;;;18.55;15.43;;;;;;;-141.97;32.53;47092.41;5032314;28;20228;-82
2023/08/29 09:48:09;;;;;;;20.30;15.73;;;;;;;-141.97;32.15;47125.09;5032559;28;20241;-82
2023/08/29 09:50:35;;;;;;;19.58;15.10;;;;;;;-141.97;31.43;47186.59;5032785;28;20748;-85
2023/08/29 09:53:02;;;;;;;18.98;13.77;;;;;;;-141.97;31.41;47159.69;5033207;28;20169;-82
2023/08/29 09:55:33;;;;;;;14.60;12.85;;;;;;;-141.97;31.42;47188.50;5035585;28;20170;-82
2023/08/29 09:58:01;;;;;;;17.65;12.07;;;;;;;-141.97;31.42;47178.91;5043530;28;20222;-83
2023/08/29 10:00:27;;;;;;;17.13;11.10;;;;;;;-141.97;31.19;46921.38;5052320;28;20166;-83
2023/08/29 10:02:56;;;;;;;17.20;11.20;;;;;;;-141.97;31.09;47167.38;5034228;28;20159;-84
2023/08/29 10:05:25;;;;;;;12.90;10.07;;;;;;;-141.97;31.01;47211.56;5043060;28;20169;-83
2023/08/29 10:07:55;;;;;;;14.68;10.00;;;;;;;-141.97;31.07;47184.66;5056458;28;20197;-84
2023/08/29 10:10:21;;;;;;;15.93;10.20;;;;;;;-141.97;31.27;47134.69;5054448;28;20238;-84
2023/08/29 10:12:48;;;;;;;15.57;10.02;;;;;;;-141.97;31.17;47207.72;5051404;28;20166;-84
2023/08/29 10:15:15;;;;;;;14.95;10.13;;;;;;;-141.97;30.82;47207.72;5050378;28;20228;-84
2023/08/29 10:17:42;;;;;;;12.48;8.63;;;;;;;-141.97;30.78;47148.16;5033940;28;20162;-86
2023/08/29 10:20:12;;;;;;;10.88;8.25;;;;;;;-141.97;31.01;47180.81;5032663;28;20185;-84
2023/08/29 10:22:41;;;;;;;12.98;8.57;;;;;;;-141.97;31.24;46969.41;5031904;28;20170;-83
2023/08/29 10:25:07;;;;;;;15.45;8.23;;;;;;;-141.97;31.35;47180.81;5030430;28;20177;-83
2023/08/29 10:27:34;;;;;;;11.40;8.40;;;;;;;-141.97;30.58;47449.88;5031827;28;20553;-84
2023/08/29 10:30:05;;;;;;;10.70;7.90;;;;;;;-141.97;30.25;47000.16;5012210;28;20336;-83
2023/08/29 10:32:31;;;;;;;14.20;8.27;;;;;;;-141.97;29.95;47144.31;5012559;28;20155;-84
2023/08/29 10:34:57;;;;;;;11.75;8.38;;;;;;;-141.97;29.90;47142.38;5017477;28;20173;-83
2023/08/29 10:37:25;;;;;;;12.15;8.00;;;;;;;-141.97;30.36;47188.50;5031154;28;20634;-83
2023/08/29 10:39:51;;;;;;;15.40;8.40;;;;;;;-141.97;30.35;47401.84;5032434;28;20189;-83
2023/08/29 10:42:17;;;;;;;12.02;8.50;;;;;;;-141.97;30.55;47069.34;5031488;28;20214;-85
2023/08/29 10:44:44;;;;;;;11.65;8.32;;;;;;;-141.97;31.23;47038.59;5031157;28;20162;-86
2023/08/29 10:47:28;;;;;;;12.07;8.60;;;;;;;-141.97;30.88;47188.50;5030921;28;20235;-87
2023/08/29 10:50:07;;;;;;;13.18;10.43;;;;;;;-141.97;30.31;47169.28;5031735;28;20158;-84
2023/08/29 10:52:39;;;;;;;13.07;8.90;;;;;;;-141.97;29.88;47142.38;5031782;28;20237;-85
2023/08/29 10:55:18;;;;;;;10.25;8.23;;;;;;;-141.97;30.13;47171.22;5030678;28;20186;-85
2023/08/29 10:57:43;;;;;;;10.48;8.30;;;;;;;-141.97;30.54;47176.97;5031314;28;20630;-85
2023/08/29 11:00:33;;;;;;;17.42;8.63;;;;;;;-141.97;30.18;47015.53;5031350;28;20189;-85
2023/08/29 11:03:00;;;;;;;15.13;8.50;;;;;;;-141.97;30.19;47123.16;5031400;28;20173;-85
2023/08/29 11:05:25;;;;;;;10.68;8.00;;;;;;;-141.97;29.16;47138.53;5030537;28;20166;-85